createdAt,value
2022-12-19T00:01:26.772Z,100.00
2022-12-19T00:04:35.135Z,100.00
2022-12-19T00:07:41.546Z,100.00
2022-12-19T00:10:56.783Z,100.00
2022-12-19T00:14:03.361Z,100.00
2022-12-19T00:17:09.521Z,100.00
2022-12-19T00:20:17.779Z,100.00
2022-12-19T00:23:24.967Z,100.00
2022-12-19T00:26:32.598Z,100.00
2022-12-19T00:29:38.677Z,100.00
2022-12-19T00:32:45.130Z,100.00
2022-12-19T00:35:58.120Z,100.00
2022-12-19T00:39:08.488Z,100.00
2022-12-19T00:42:14.820Z,100.00
2022-12-19T00:45:21.224Z,100.00
2022-12-19T00:48:27.289Z,100.00
2022-12-19T00:51:36.726Z,100.00
2022-12-19T00:54:43.055Z,100.00
2022-12-19T00:57:49.267Z,100.00
2022-12-19T01:00:55.777Z,100.00
2022-12-19T01:07:31.337Z,100.00
2022-12-19T01:10:37.617Z,100.00
2022-12-19T01:13:43.284Z,100.00
2022-12-19T01:16:49.674Z,100.00
2022-12-19T01:19:56.081Z,100.00
2022-12-19T01:23:03.690Z,100.00
2022-12-19T01:26:10.325Z,100.00
2022-12-19T01:29:16.624Z,100.00
2022-12-19T01:32:23.583Z,100.00
2022-12-19T01:35:30.146Z,100.00
2022-12-19T01:38:38.653Z,100.00
2022-12-19T01:41:44.923Z,100.00
2022-12-19T01:45:40.947Z,100.00
2022-12-19T01:48:52.169Z,100.00
2022-12-19T01:52:02.488Z,100.00
2022-12-19T01:55:11.985Z,100.00
2022-12-19T01:58:18.886Z,100.00
2022-12-19T02:01:26.093Z,100.00
2022-12-19T02:04:33.759Z,100.00
2022-12-19T02:07:41.183Z,100.00
2022-12-19T02:10:48.613Z,100.00
2022-12-19T02:13:55.131Z,100.00
2022-12-19T02:17:10.196Z,100.00
2022-12-19T02:20:46.509Z,100.00
2022-12-19T02:24:35.948Z,100.00
2022-12-19T02:28:08.107Z,100.00
2022-12-19T02:31:21.286Z,100.00
2022-12-19T02:34:33.853Z,100.00
2022-12-19T02:37:48.189Z,100.00
2022-12-19T02:41:02.058Z,100.00
2022-12-19T02:44:08.524Z,100.00
2022-12-19T02:47:17.927Z,100.00
2022-12-19T02:50:24.378Z,100.00
2022-12-19T02:53:30.645Z,100.00
2022-12-19T02:56:47.928Z,100.00
2022-12-19T03:00:03.646Z,100.00
2022-12-19T03:03:16.745Z,100.00
2022-12-19T03:06:27.895Z,100.00
2022-12-19T03:09:41.592Z,100.00
2022-12-19T03:12:53.332Z,100.00
2022-12-19T03:16:00.615Z,100.00
2022-12-19T03:19:11.132Z,100.00
2022-12-19T03:22:17.545Z,100.00
2022-12-19T03:25:25.678Z,100.00
2022-12-19T03:28:43.142Z,100.00
2022-12-19T03:31:50.283Z,100.00
2022-12-19T03:35:04.525Z,100.00
2022-12-19T03:38:12.397Z,100.00
2022-12-19T03:41:42.699Z,100.00
2022-12-19T03:44:50.722Z,100.00
2022-12-19T03:48:00.744Z,100.00
2022-12-19T03:51:15.211Z,100.00
2022-12-19T03:54:26.692Z,100.00
2022-12-19T03:57:39.187Z,100.00
2022-12-19T04:00:48.468Z,100.00
2022-12-19T04:03:56.012Z,100.00
2022-12-19T04:07:05.403Z,100.00
2022-12-19T04:10:16.018Z,100.00
2022-12-19T04:13:27.736Z,100.00
2022-12-19T04:16:40.986Z,100.00
2022-12-19T04:19:52.419Z,100.00
2022-12-19T04:23:05.802Z,100.00
2022-12-19T04:26:14.927Z,100.00
2022-12-19T04:29:21.581Z,100.00
2022-12-19T04:32:30.669Z,100.00
2022-12-19T04:35:37.010Z,100.00
2022-12-19T04:38:45.182Z,100.00
2022-12-19T04:41:51.319Z,100.00
2022-12-19T04:44:57.553Z,100.00
2022-12-19T04:48:03.864Z,100.00
2022-12-19T04:51:09.979Z,100.00
2022-12-19T04:54:17.622Z,100.00
2022-12-19T04:57:24.133Z,100.00
2022-12-19T05:00:30.371Z,100.00
2022-12-19T05:03:37.160Z,100.00
2022-12-19T05:06:43.598Z,100.00
2022-12-19T05:09:51.499Z,100.00
2022-12-19T05:12:57.790Z,100.00
2022-12-19T05:16:06.937Z,100.00
2022-12-19T05:19:13.172Z,100.00
2022-12-19T05:22:19.452Z,100.00
2022-12-19T05:25:27.585Z,100.00
2022-12-19T05:28:34.400Z,100.00
2022-12-19T05:31:41.015Z,100.00
2022-12-19T05:34:47.196Z,100.00
2022-12-19T05:37:53.956Z,100.00
2022-12-19T05:41:01.860Z,100.00
2022-12-19T05:44:08.190Z,100.00
2022-12-19T05:47:14.595Z,100.00
2022-12-19T05:50:21.279Z,100.00
2022-12-19T05:53:28.737Z,100.00
2022-12-19T05:56:36.671Z,100.00
2022-12-19T05:59:43.190Z,100.00
2022-12-19T06:02:49.916Z,100.00
2022-12-19T06:05:56.844Z,100.00
2022-12-19T06:09:03.601Z,100.00
2022-12-19T06:12:11.374Z,100.00
2022-12-19T06:15:17.869Z,100.00
2022-12-19T06:18:23.917Z,100.00
2022-12-19T06:21:30.218Z,100.00
2022-12-19T06:24:36.324Z,100.00
2022-12-19T06:27:44.088Z,100.00
2022-12-19T06:30:50.174Z,100.00
2022-12-19T06:33:57.172Z,100.00
2022-12-19T06:37:07.973Z,100.00
2022-12-19T06:40:34.786Z,100.00
2022-12-19T06:43:41.539Z,100.00
2022-12-19T06:46:47.643Z,100.00
2022-12-19T06:49:54.923Z,100.00
2022-12-19T06:53:01.267Z,100.00
2022-12-19T06:56:08.840Z,100.00
2022-12-19T06:59:17.582Z,100.00
2022-12-19T07:02:29.828Z,100.00
2022-12-19T07:05:36.548Z,100.00
2022-12-19T07:08:42.798Z,100.00
2022-12-19T07:11:49.188Z,100.00
2022-12-19T07:14:56.734Z,100.00
2022-12-19T07:18:06.987Z,100.00
2022-12-19T07:21:13.764Z,100.00
2022-12-19T07:24:20.219Z,100.00
2022-12-19T07:27:33.799Z,100.00
2022-12-19T07:30:43.482Z,100.00
2022-12-19T07:33:50.002Z,100.00
2022-12-19T07:36:56.259Z,100.00
2022-12-19T07:40:03.041Z,100.00
2022-12-19T07:43:09.337Z,100.00
2022-12-19T07:46:17.256Z,100.00
2022-12-19T07:49:23.747Z,100.00
2022-12-19T07:52:30.315Z,100.00
2022-12-19T07:55:37.066Z,99.60
2022-12-19T07:58:44.704Z,97.51
2022-12-19T08:18:22.616Z,100.00
2022-12-19T08:21:30.483Z,100.00
2022-12-19T08:24:36.786Z,100.00
2022-12-19T08:27:43.232Z,99.65
2022-12-19T08:30:49.318Z,100.00
2022-12-19T08:33:58.127Z,100.00
2022-12-19T08:37:04.095Z,100.00
2022-12-19T08:40:11.161Z,100.00
2022-12-19T08:43:17.328Z,100.00
2022-12-19T08:46:23.863Z,100.00
2022-12-19T08:49:31.399Z,100.00
2022-12-19T08:52:37.806Z,98.46
2022-12-19T08:55:43.871Z,100.00
2022-12-19T08:58:52.936Z,100.00
2022-12-19T09:01:59.110Z,100.00
2022-12-19T09:06:00.651Z,98.89
2022-12-19T09:08:35.776Z,99.77
2022-12-19T09:11:45.756Z,98.30
2022-12-19T09:14:54.398Z,97.94
2022-12-19T09:18:00.534Z,98.07
2022-12-19T09:21:09.016Z,95.71
2022-12-19T09:24:14.956Z,97.14
2022-12-19T09:27:21.126Z,97.67
2022-12-19T09:30:27.070Z,96.12
2022-12-19T09:33:41.224Z,95.25
2022-12-19T09:36:50.748Z,95.16
2022-12-19T09:39:58.821Z,96.89
2022-12-19T09:43:12.507Z,93.44
2022-12-19T09:46:20.519Z,90.34
2022-12-19T09:49:30.366Z,93.11
2022-12-19T09:52:43.795Z,91.33
2022-12-19T09:55:53.278Z,89.03
2022-12-19T09:59:03.728Z,87.56
2022-12-19T10:02:26.238Z,86.26
2022-12-19T10:06:08.685Z,84.58
2022-12-19T10:10:40.128Z,85.38
2022-12-19T10:13:03.635Z,83.30
2022-12-19T10:16:26.125Z,86.14
2022-12-19T10:19:44.700Z,83.61
2022-12-19T10:23:02.797Z,80.69
2022-12-19T10:26:17.649Z,84.21
2022-12-19T10:29:51.949Z,82.33
2022-12-19T10:33:07.036Z,80.84
2022-12-19T10:36:18.164Z,80.43
2022-12-19T10:39:31.757Z,82.23
2022-12-19T10:42:49.812Z,80.43
2022-12-19T10:46:00.579Z,81.16
2022-12-19T10:49:16.810Z,78.74
2022-12-19T10:52:48.302Z,79.38
2022-12-19T10:55:55.779Z,77.46
2022-12-19T10:59:03.977Z,78.28
2022-12-19T11:02:36.363Z,81.68
2022-12-19T11:05:48.331Z,81.72
2022-12-19T11:09:19.657Z,79.63
2022-12-19T11:16:30.307Z,79.30
2022-12-19T11:20:32.651Z,80.52
2022-12-19T11:29:26.554Z,79.60
2022-12-19T11:30:08.453Z,80.19
2022-12-19T11:30:43.938Z,78.90
2022-12-19T11:33:29.555Z,79.80
2022-12-19T11:36:40.698Z,78.75
2022-12-19T11:39:51.558Z,78.16
2022-12-19T11:43:43.174Z,78.78
2022-12-19T11:46:40.727Z,77.92
2022-12-19T11:49:54.991Z,73.56
2022-12-19T11:53:16.791Z,77.80
2022-12-19T11:56:27.955Z,77.78
2022-12-19T11:59:37.692Z,78.59
2022-12-19T12:03:35.772Z,78.06
2022-12-19T12:06:51.556Z,77.48
2022-12-19T12:13:54.276Z,73.32
2022-12-19T12:20:08.962Z,76.67
2022-12-19T12:31:10.364Z,77.31
2022-12-19T12:31:15.312Z,77.82
2022-12-19T12:31:38.889Z,76.44
2022-12-19T12:31:39.144Z,79.23
2022-12-19T12:35:40.928Z,77.27
2022-12-19T12:39:24.295Z,76.50
2022-12-19T12:42:48.457Z,77.44
2022-12-19T12:45:55.004Z,78.27
2022-12-19T12:49:04.637Z,79.07
2022-12-19T12:52:16.888Z,80.42
2022-12-19T12:55:30.039Z,77.61
2022-12-19T12:59:22.585Z,79.18
2022-12-19T13:02:29.206Z,79.88
2022-12-19T13:05:52.260Z,81.59
2022-12-19T13:09:05.761Z,80.12
2022-12-19T13:12:39.999Z,82.77
2022-12-19T13:15:48.019Z,83.41
2022-12-19T13:19:05.523Z,82.64
2022-12-19T13:22:22.485Z,81.12
2022-12-19T13:25:50.356Z,82.29
2022-12-19T13:28:56.484Z,84.38
2022-12-19T13:32:16.148Z,85.00
2022-12-19T13:38:47.807Z,83.78
2022-12-19T13:39:54.908Z,85.82
2022-12-19T13:42:47.485Z,86.55
2022-12-19T13:45:55.657Z,87.14
2022-12-19T13:49:07.166Z,89.52
2022-12-19T13:52:14.383Z,89.13
2022-12-19T13:55:21.223Z,90.14
2022-12-19T13:58:29.926Z,88.88
2022-12-19T14:01:38.629Z,92.19
2022-12-19T14:04:47.208Z,89.26
2022-12-19T14:07:54.067Z,89.64
2022-12-19T14:11:31.385Z,89.54
2022-12-19T14:14:44.816Z,90.35
2022-12-19T14:17:51.849Z,91.51
2022-12-19T14:22:04.242Z,92.96
2022-12-19T14:24:42.651Z,91.89
2022-12-19T14:28:18.320Z,90.49
2022-12-19T14:31:21.552Z,90.63
2022-12-19T14:35:13.130Z,90.49
2022-12-19T14:39:24.815Z,91.49
2022-12-19T14:42:06.566Z,92.14
2022-12-19T14:54:03.654Z,90.58
2022-12-19T14:54:08.505Z,88.82
2022-12-19T14:54:50.269Z,89.26
2022-12-19T14:59:49.163Z,92.39
2022-12-19T15:02:57.399Z,91.83
2022-12-19T15:06:19.885Z,90.98
2022-12-19T15:11:03.773Z,92.37
2022-12-19T15:14:48.709Z,91.11
2022-12-19T15:17:03.416Z,92.55
2022-12-19T15:20:11.996Z,94.63
2022-12-19T15:23:22.319Z,94.48
2022-12-19T15:26:31.385Z,90.91
2022-12-19T15:29:38.938Z,94.84
2022-12-19T15:32:45.767Z,91.55
2022-12-19T15:35:52.478Z,94.41
2022-12-19T15:38:58.602Z,90.91
2022-12-19T15:45:31.891Z,92.16
2022-12-19T15:48:41.729Z,90.32
2022-12-19T15:51:48.700Z,88.87
2022-12-19T15:54:56.834Z,89.87
2022-12-19T15:58:07.612Z,89.20
2022-12-19T16:01:15.372Z,90.17
2022-12-19T16:04:22.468Z,90.68
2022-12-19T16:07:29.240Z,88.04
2022-12-19T16:10:36.059Z,88.78
2022-12-19T16:13:44.302Z,94.67
2022-12-19T16:16:55.536Z,92.46
2022-12-19T16:20:01.612Z,87.57
2022-12-19T16:23:08.005Z,93.38
2022-12-19T16:26:26.578Z,94.10
2022-12-19T16:29:32.661Z,92.01
2022-12-19T16:32:40.557Z,88.41
2022-12-19T16:36:04.617Z,87.91
2022-12-19T16:39:11.764Z,90.31
2022-12-19T16:42:19.458Z,90.79
2022-12-19T16:45:27.876Z,86.62
2022-12-19T16:48:36.103Z,87.61
2022-12-19T16:51:42.520Z,87.47
2022-12-19T16:54:48.773Z,88.19
2022-12-19T16:57:57.368Z,90.93
2022-12-19T17:01:03.458Z,92.09
2022-12-19T17:04:14.848Z,93.07
2022-12-19T17:07:21.328Z,93.12
2022-12-19T17:10:32.575Z,89.53
2022-12-19T17:13:38.904Z,89.86
2022-12-19T17:16:45.612Z,87.35
2022-12-19T17:19:53.462Z,88.13
2022-12-19T17:23:00.262Z,88.84
2022-12-19T17:26:06.814Z,88.14
2022-12-19T17:29:13.849Z,89.94
2022-12-19T17:32:24.054Z,88.15
2022-12-19T17:35:35.736Z,90.99
2022-12-19T17:38:42.131Z,89.24
2022-12-19T17:41:48.641Z,90.60
2022-12-19T17:44:54.748Z,92.47
2022-12-19T17:48:03.445Z,89.10
2022-12-19T17:51:13.088Z,87.74
2022-12-19T17:54:19.821Z,87.92
2022-12-19T17:57:27.020Z,87.42
2022-12-19T18:00:34.799Z,87.75
2022-12-19T18:03:41.092Z,87.54
2022-12-19T18:06:49.472Z,88.47
2022-12-19T18:09:55.472Z,86.76
2022-12-19T18:13:01.587Z,87.61
2022-12-19T18:16:13.124Z,87.80
2022-12-19T18:19:21.025Z,87.56
2022-12-19T18:22:28.577Z,88.42
2022-12-19T18:25:36.013Z,91.47
2022-12-19T18:28:43.175Z,88.51
2022-12-19T18:31:51.100Z,88.23
2022-12-19T18:34:57.324Z,88.40
2022-12-19T18:38:07.427Z,91.33
2022-12-19T18:41:13.896Z,91.61
2022-12-19T18:44:20.347Z,89.53
2022-12-19T18:47:26.785Z,90.34
2022-12-19T18:50:32.927Z,91.63
2022-12-19T18:53:40.579Z,92.47
2022-12-19T18:56:46.785Z,90.78
2022-12-19T18:59:52.814Z,90.33
2022-12-19T19:03:01.438Z,91.15
2022-12-19T19:06:18.667Z,89.64
2022-12-19T19:09:26.627Z,91.37
2022-12-19T19:12:33.340Z,88.85
2022-12-19T19:15:43.880Z,88.14
2022-12-19T19:18:53.340Z,88.95
2022-12-19T19:22:00.235Z,89.38
2022-12-19T19:25:09.220Z,89.22
2022-12-19T19:28:15.583Z,88.33
2022-12-19T19:31:26.312Z,88.97
2022-12-19T19:34:36.650Z,91.13
2022-12-19T19:37:44.883Z,93.26
2022-12-19T19:40:52.635Z,90.20
2022-12-19T19:43:59.952Z,90.20
2022-12-19T19:47:06.075Z,89.83
2022-12-19T19:50:13.319Z,87.32
2022-12-19T19:53:19.983Z,90.15
2022-12-19T19:56:27.656Z,88.94
2022-12-19T19:59:34.033Z,88.58
2022-12-19T20:02:40.486Z,88.37
2022-12-19T20:05:47.227Z,88.49
2022-12-19T20:08:53.784Z,92.24
2022-12-19T20:12:01.813Z,88.16
2022-12-19T20:15:10.126Z,88.43
2022-12-19T20:18:16.635Z,87.54
2022-12-19T20:21:24.692Z,88.74
2022-12-19T20:24:31.183Z,88.71
2022-12-19T20:27:38.931Z,88.25
2022-12-19T20:30:45.381Z,88.97
2022-12-19T20:33:53.324Z,87.31
2022-12-19T20:36:59.764Z,89.34
2022-12-19T20:40:08.107Z,86.93
2022-12-19T20:43:15.558Z,88.61
2022-12-19T20:46:22.939Z,88.13
2022-12-19T20:49:29.540Z,90.28
2022-12-19T20:52:36.073Z,91.20
2022-12-19T20:55:42.443Z,88.79
2022-12-19T20:58:50.482Z,90.58
2022-12-19T21:01:57.164Z,89.03
2022-12-19T21:05:03.773Z,89.38
2022-12-19T21:08:10.547Z,91.21
2022-12-19T21:11:17.168Z,91.51
2022-12-19T21:14:25.068Z,93.42
2022-12-19T21:17:31.332Z,91.31
2022-12-19T21:20:38.789Z,88.49
2022-12-19T21:23:45.517Z,90.83
2022-12-19T21:26:57.761Z,89.12
2022-12-19T21:30:06.541Z,90.91
2022-12-19T21:33:13.066Z,88.26
2022-12-19T21:36:21.865Z,91.74
2022-12-19T21:39:27.973Z,90.78
2022-12-19T21:42:34.370Z,90.48
2022-12-19T21:45:42.219Z,91.29
2022-12-19T21:48:50.795Z,93.80
2022-12-19T21:51:57.076Z,93.57
2022-12-19T21:55:03.322Z,93.69
2022-12-19T21:58:09.670Z,93.82
2022-12-19T22:01:17.440Z,93.18
2022-12-19T22:04:26.659Z,93.84
2022-12-19T22:07:33.381Z,91.41
2022-12-19T22:10:39.831Z,91.94
2022-12-19T22:13:46.978Z,91.47
2022-12-19T22:16:54.831Z,91.96
2022-12-19T22:20:01.468Z,94.18
2022-12-19T22:23:12.898Z,96.28
2022-12-19T22:26:22.240Z,96.15
2022-12-19T22:29:28.628Z,98.47
2022-12-19T22:32:36.536Z,95.83
2022-12-19T22:35:43.718Z,98.44
2022-12-19T22:38:51.013Z,98.49
2022-12-19T22:41:57.529Z,93.83
2022-12-19T22:45:03.814Z,90.01
2022-12-19T22:48:11.676Z,89.54
2022-12-19T22:51:19.764Z,93.96
2022-12-19T22:54:26.318Z,94.96
2022-12-19T22:57:32.517Z,89.77
2022-12-19T23:00:39.489Z,92.25
2022-12-19T23:03:49.234Z,92.18
2022-12-19T23:06:55.880Z,93.21
2022-12-19T23:10:03.549Z,96.53
2022-12-19T23:13:09.832Z,97.38
2022-12-19T23:16:16.251Z,95.91
2022-12-19T23:19:24.275Z,96.70
2022-12-19T23:22:30.832Z,96.09
2022-12-19T23:25:39.376Z,95.57
2022-12-19T23:28:51.336Z,98.91
2022-12-19T23:31:57.786Z,100.00
2022-12-19T23:35:06.001Z,100.00
2022-12-19T23:38:12.487Z,100.00
2022-12-19T23:41:18.692Z,100.00
2022-12-19T23:44:25.039Z,100.00
2022-12-19T23:47:31.345Z,100.00
2022-12-19T23:50:39.258Z,100.00
2022-12-19T23:53:46.662Z,100.00
2022-12-19T23:56:53.649Z,100.00
